East End, Virginia
Current Conditions -  °F | °C
As of 5:54 PM on Wednesday 26 Nov 2014 (Local Time) from KRIC Reporting Station
Light Rain Light Rain  
Wind Chill: 31°   Ceiling: 1200
Heat Index: 39°   Visibility: 10mi
Dew Point: 35°   Wind: 13mph
Humidity: 86%   Direction: 340°NNW
Pressure: 29.95"   Gusts: NA
Location:  37.556°N, 77.3779°W
Report Text: KRIC 262254Z 34011KT 10SM -RA BKN012 BKN040 OVC065 04/02 A2995 RMK AO2 SLP146 P0000 T00390017
Loading
Personal Weather Stations






























Interactive Weather Map New forecast layout! Learn more

10-Day Weather Forecast

Advertisements
Track Severe Weather on mobile